Manilva, Spain
Current Conditions -  °F | °C
As of 4:50 PM on Thursday 27 Nov 2014 (Local Time) from LXGB Reporting Station
Broken Clouds Broken Clouds  
Wind Chill: 59°   Ceiling: 5000
Heat Index: 59°   Visibility: 6mi
Dew Point: 50°   Wind: 7mph
Humidity: 72%   Direction: 170°S
Pressure: 29.47"   Gusts: NA
Location:  36.38°N, 5.25°W
Report Text: LXGB 271550Z AUTO 17006KT 9999 // FEW037/// BKN050/// 15/10 Q0998
Loading
Personal Weather Stations






























Interactive Weather Map New forecast layout! Learn more

10-Day Weather Forecast

Advertisements
Track Severe Weather on mobile